createdAt,value
2018-08-10T00:01:04.902Z,99513.45
2018-08-10T00:03:33.882Z,99513.05
2018-08-10T00:06:02.821Z,99513.72
2018-08-10T00:08:31.684Z,99516.30
2018-08-10T00:11:00.600Z,99521.80
2018-08-10T00:13:29.523Z,99517.86
2018-08-10T00:15:58.375Z,99520.02
2018-08-10T00:18:27.174Z,99524.89
2018-08-10T00:20:56.071Z,99528.23
2018-08-10T00:23:24.977Z,99536.06
2018-08-10T00:25:53.803Z,99542.91
2018-08-10T00:28:22.706Z,99546.00
2018-08-10T00:30:51.527Z,99542.13
2018-08-10T00:33:20.336Z,99544.05
2018-08-10T00:35:49.236Z,99549.72
2018-08-10T00:38:18.100Z,99544.70
2018-08-10T00:40:46.927Z,99545.41
2018-08-10T00:43:15.827Z,99549.74
2018-08-10T00:45:44.651Z,99546.95
2018-08-10T00:48:13.523Z,99542.08
2018-08-10T00:50:42.369Z,99545.65
2018-08-10T00:53:11.262Z,99530.89
2018-08-10T00:55:40.154Z,99536.10
2018-08-10T00:58:09.145Z,99528.63
2018-08-10T01:00:38.009Z,99535.23
2018-08-10T01:03:07.006Z,99536.91
2018-08-10T01:05:35.974Z,99537.59
2018-08-10T01:08:04.875Z,99538.02
2018-08-10T01:10:33.825Z,99535.83
2018-08-10T01:13:02.708Z,99539.30
2018-08-10T01:15:31.536Z,99541.54
2018-08-10T01:18:00.345Z,99544.11
2018-08-10T01:20:29.245Z,99534.30
2018-08-10T01:23:03.079Z,99528.63
2018-08-10T01:25:31.979Z,99532.22
2018-08-10T01:28:03.101Z,99530.41
2018-08-10T01:30:33.165Z,99526.44
2018-08-10T01:33:02.294Z,99524.91
2018-08-10T01:35:31.459Z,99520.35
2018-08-10T01:38:01.465Z,99522.98
2018-08-10T01:40:30.381Z,99524.91
2018-08-10T01:42:59.220Z,99526.59
2018-08-10T01:45:28.140Z,99534.50
2018-08-10T01:47:56.983Z,99534.20
2018-08-10T01:50:25.811Z,99534.98
2018-08-10T01:52:54.650Z,99535.73
2018-08-10T01:55:23.515Z,99538.50
2018-08-10T01:57:52.413Z,99544.72
2018-08-10T02:00:21.379Z,99540.91
2018-08-10T02:02:50.255Z,99543.75
2018-08-10T02:05:19.191Z,99548.38
2018-08-10T02:07:48.085Z,99544.77
2018-08-10T02:10:18.312Z,99544.63
2018-08-10T02:12:51.638Z,99541.53
2018-08-10T02:15:20.546Z,99543.84
2018-08-10T02:17:49.462Z,99547.23
2018-08-10T02:20:19.867Z,99548.33
2018-08-10T02:22:49.012Z,99548.13
2018-08-10T02:25:19.249Z,99549.95
2018-08-10T02:27:49.202Z,99551.57
2018-08-10T02:30:19.418Z,99557.91
2018-08-10T02:32:48.937Z,99559.11
2018-08-10T02:35:17.829Z,99560.42
2018-08-10T02:37:46.681Z,99564.56
2018-08-10T02:40:18.125Z,99555.00
2018-08-10T02:42:47.967Z,99555.86
2018-08-10T02:45:17.284Z,99549.45
2018-08-10T02:47:46.683Z,99549.89
2018-08-10T02:50:15.573Z,99550.92
2018-08-10T02:52:44.585Z,99551.36
2018-08-10T02:55:14.092Z,99547.77
2018-08-10T02:57:43.029Z,99551.57
2018-08-10T03:00:15.262Z,99554.13
2018-08-10T03:02:44.637Z,99550.16
2018-08-10T03:05:13.563Z,99553.27
2018-08-10T03:07:42.753Z,99547.77
2018-08-10T03:10:12.697Z,99554.49
2018-08-10T03:12:41.553Z,99556.81
2018-08-10T03:15:12.854Z,99556.30
2018-08-10T03:17:41.785Z,99557.86
2018-08-10T03:20:11.077Z,99563.58
2018-08-10T03:22:40.119Z,99560.51
2018-08-10T03:25:10.417Z,99559.39
2018-08-10T03:27:39.467Z,99565.38
2018-08-10T03:30:09.714Z,99567.66
2018-08-10T03:32:38.929Z,99567.30
2018-08-10T03:35:07.837Z,99568.31
2018-08-10T03:37:37.279Z,99573.83
2018-08-10T03:40:08.155Z,99568.98
2018-08-10T03:42:37.002Z,99581.78
2018-08-10T03:45:06.398Z,99578.45
2018-08-10T03:47:35.379Z,99575.99
2018-08-10T03:50:04.683Z,99570.23
2018-08-10T03:52:33.541Z,99570.03
2018-08-10T03:55:02.426Z,99578.28
2018-08-10T03:57:31.255Z,99578.17
2018-08-10T04:00:00.165Z,99576.45
2018-08-10T04:02:29.076Z,99572.00
2018-08-10T04:04:57.933Z,99574.67
2018-08-10T04:07:26.851Z,99581.69
2018-08-10T04:09:55.713Z,99585.50
2018-08-10T04:12:24.634Z,99590.94
2018-08-10T04:14:53.620Z,99587.97
2018-08-10T04:17:24.877Z,99600.11
2018-08-10T04:19:54.843Z,99587.38
2018-08-10T04:22:24.933Z,99595.56
2018-08-10T04:24:53.799Z,99596.64
2018-08-10T04:27:22.703Z,99593.90
2018-08-10T04:29:51.605Z,99595.04
2018-08-10T04:32:20.800Z,99593.73
2018-08-10T04:34:49.758Z,99587.32
2018-08-10T04:37:19.226Z,99590.17
2018-08-10T04:39:48.312Z,99590.05
2018-08-10T04:42:17.388Z,99597.14
2018-08-10T04:44:46.239Z,99594.59
2018-08-10T04:47:15.227Z,99599.70
2018-08-10T04:49:44.120Z,99602.11
2018-08-10T04:52:12.972Z,99604.34
2018-08-10T04:54:41.889Z,99606.77
2018-08-10T04:57:13.295Z,99611.64
2018-08-10T04:59:42.348Z,99616.02
2018-08-10T05:02:11.781Z,99616.56
2018-08-10T05:04:40.653Z,99610.81
2018-08-10T05:07:09.911Z,99614.94
2018-08-10T05:09:38.780Z,99618.83
2018-08-10T05:12:07.736Z,99619.78
2018-08-10T05:14:36.575Z,99619.87
2018-08-10T05:17:05.582Z,99618.91
2018-08-10T05:19:34.506Z,99628.20
2018-08-10T05:22:03.430Z,99628.41
2018-08-10T05:24:32.258Z,99629.33
2018-08-10T05:27:01.142Z,99619.91
2018-08-10T05:29:29.993Z,99623.67
2018-08-10T05:31:58.883Z,99630.41
2018-08-10T05:34:27.741Z,99624.45
2018-08-10T05:36:56.667Z,99628.56
2018-08-10T05:39:25.481Z,99620.78
2018-08-10T05:41:54.487Z,99626.70
2018-08-10T05:44:23.313Z,99626.77
2018-08-10T05:46:52.220Z,99622.75
2018-08-10T05:49:21.056Z,99626.59
2018-08-10T05:51:49.871Z,99624.67
2018-08-10T05:54:18.735Z,99627.77
2018-08-10T05:56:47.682Z,99626.83
2018-08-10T05:59:16.559Z,99633.89
2018-08-10T06:01:45.397Z,99630.42
2018-08-10T06:04:14.365Z,99628.41
2018-08-10T06:06:43.182Z,99629.89
2018-08-10T06:09:15.225Z,99630.66
2018-08-10T06:11:44.966Z,99629.94
2018-08-10T06:14:14.811Z,99635.57
2018-08-10T06:16:43.864Z,99635.42
2018-08-10T06:19:12.670Z,99636.44
2018-08-10T06:21:41.679Z,99628.03
2018-08-10T06:24:10.483Z,99633.55
2018-08-10T06:26:39.355Z,99630.01
2018-08-10T06:29:08.219Z,99631.27
2018-08-10T06:31:37.091Z,99630.16
2018-08-10T06:34:05.977Z,99636.91
2018-08-10T06:36:34.770Z,99633.68
2018-08-10T06:39:03.764Z,99635.52
2018-08-10T06:41:32.568Z,99629.88
2018-08-10T06:44:01.383Z,99634.26
2018-08-10T06:46:30.265Z,99632.68
2018-08-10T06:48:59.076Z,99639.98
2018-08-10T06:51:27.972Z,99646.86
2018-08-10T06:53:56.827Z,99642.41
2018-08-10T06:56:25.679Z,99643.47
2018-08-10T06:58:54.539Z,99648.70
2018-08-10T07:01:23.483Z,99644.20
2018-08-10T07:03:52.327Z,99643.67
2018-08-10T07:06:21.178Z,99649.83
2018-08-10T07:08:50.145Z,99645.86
2018-08-10T07:11:19.044Z,99652.75
2018-08-10T07:13:47.879Z,99642.64
2018-08-10T07:16:16.750Z,99647.80
2018-08-10T07:18:46.581Z,99648.61
2018-08-10T07:21:15.384Z,99645.75
2018-08-10T07:23:44.224Z,99642.16
2018-08-10T07:26:13.042Z,99640.22
2018-08-10T07:28:41.879Z,99637.68
2018-08-10T07:31:10.831Z,99640.08
2018-08-10T07:33:39.646Z,99636.30
2018-08-10T07:36:08.765Z,99643.19
2018-08-10T07:38:37.920Z,99643.48
2018-08-10T07:41:06.804Z,99642.08
2018-08-10T07:43:35.803Z,99642.63
2018-08-10T07:46:04.868Z,99644.06
2018-08-10T07:48:37.931Z,99641.58
2018-08-10T07:51:07.124Z,99638.82
2018-08-10T07:53:36.780Z,99639.52
2018-08-10T07:56:05.934Z,99644.83
2018-08-10T07:58:35.075Z,99645.89
2018-08-10T08:01:04.122Z,99638.33
2018-08-10T08:03:33.300Z,99641.77
2018-08-10T08:06:02.307Z,99645.10
2018-08-10T08:08:31.270Z,99644.56
2018-08-10T08:11:00.209Z,99642.66
2018-08-10T08:13:29.202Z,99637.67
2018-08-10T08:15:58.116Z,99638.70
2018-08-10T08:18:27.185Z,99641.72
2018-08-10T08:21:05.030Z,99633.98
2018-08-10T08:23:34.093Z,99637.27
2018-08-10T08:26:03.744Z,99642.25
2018-08-10T08:28:32.897Z,99641.37
2018-08-10T08:31:02.909Z,99645.50
2018-08-10T08:34:09.568Z,99647.20
2018-08-10T08:36:38.531Z,99645.86
2018-08-10T08:39:28.220Z,99648.31
2018-08-10T08:41:57.171Z,99643.55
2018-08-10T08:45:40.037Z,99644.95
2018-08-10T08:48:08.984Z,99643.84
2018-08-10T08:50:40.105Z,99648.80
2018-08-10T08:53:09.082Z,99643.77
2018-08-10T08:55:40.368Z,99644.38
2018-08-10T08:58:09.967Z,99650.30
2018-08-10T09:00:39.140Z,99648.08
2018-08-10T09:03:13.907Z,99643.48
2018-08-10T09:05:42.857Z,99639.09
2018-08-10T09:08:12.542Z,99646.77
2018-08-10T09:10:41.681Z,99647.23
2018-08-10T09:13:10.813Z,99640.48
2018-08-10T09:15:39.896Z,99644.64
2018-08-10T09:18:09.044Z,99643.23
2018-08-10T09:20:38.042Z,99633.70
2018-08-10T09:23:08.141Z,99649.36
2018-08-10T09:25:37.253Z,99638.64
2018-08-10T09:28:06.402Z,99646.09
2018-08-10T09:30:35.439Z,99639.02
2018-08-10T09:33:05.097Z,99647.20
2018-08-10T09:35:34.212Z,99643.25
2018-08-10T09:38:03.306Z,99644.00
2018-08-10T09:41:04.092Z,99636.91
2018-08-10T09:43:33.028Z,99631.27
2018-08-10T09:46:02.228Z,99629.06
2018-08-10T09:48:31.323Z,99618.53
2018-08-10T09:51:00.825Z,99624.16
2018-08-10T09:53:29.845Z,99619.11
2018-08-10T09:55:58.888Z,99619.50
2018-08-10T09:58:27.757Z,99626.11
2018-08-10T10:01:00.916Z,99624.00
2018-08-10T10:03:29.859Z,99629.14
2018-08-10T10:06:00.193Z,99622.69
2018-08-10T10:08:29.090Z,99620.81
2018-08-10T10:10:58.033Z,99617.63
2018-08-10T10:13:27.051Z,99614.81
2018-08-10T10:15:55.913Z,99609.11
2018-08-10T10:18:25.049Z,99611.27
2018-08-10T10:20:54.082Z,99617.48
2018-08-10T10:23:23.097Z,99607.96
2018-08-10T10:25:52.047Z,99607.50
2018-08-10T10:28:21.085Z,99617.02
2018-08-10T10:30:49.971Z,99604.23
2018-08-10T10:33:19.066Z,99612.66
2018-08-10T10:35:47.988Z,99605.97
2018-08-10T10:38:16.940Z,99611.78
2018-08-10T10:40:45.824Z,99613.53
2018-08-10T10:43:14.750Z,99615.13
2018-08-10T10:45:43.660Z,99609.35
2018-08-10T10:48:12.530Z,99608.07
2018-08-10T10:50:41.423Z,99597.66
2018-08-10T10:53:10.455Z,99598.13
2018-08-10T10:55:39.360Z,99592.62
2018-08-10T10:58:08.203Z,99595.52
2018-08-10T11:00:37.123Z,99596.53
2018-08-10T11:03:06.083Z,99591.17
2018-08-10T11:05:34.961Z,99603.82
2018-08-10T11:08:04.021Z,99594.72
2018-08-10T11:10:33.166Z,99598.66
2018-08-10T11:13:02.158Z,99592.94
2018-08-10T11:15:31.251Z,99594.55
2018-08-10T11:18:00.199Z,99594.29
2018-08-10T11:20:29.132Z,99595.67
2018-08-10T11:22:58.255Z,99591.37
2018-08-10T11:25:30.192Z,99597.16
2018-08-10T11:27:59.242Z,99594.45
2018-08-10T11:30:28.295Z,99595.42
2018-08-10T11:32:57.251Z,99597.20
2018-08-10T11:35:26.394Z,99594.27
2018-08-10T11:37:55.506Z,99598.57
2018-08-10T11:40:24.384Z,99601.83
2018-08-10T11:42:53.325Z,99597.23
2018-08-10T11:45:22.310Z,99602.45
2018-08-10T11:47:51.268Z,99604.55
2018-08-10T11:50:20.221Z,99591.41
2018-08-10T11:52:49.119Z,99595.50
2018-08-10T11:55:18.337Z,99596.87
2018-08-10T11:57:47.222Z,99590.64
2018-08-10T12:00:16.596Z,99578.29
2018-08-10T12:02:45.520Z,99583.92
2018-08-10T12:05:14.825Z,99576.46
2018-08-10T12:07:43.685Z,99563.16
2018-08-10T12:10:12.586Z,99561.27
2018-08-10T12:12:41.455Z,99555.88
2018-08-10T12:15:12.518Z,99554.23
2018-08-10T12:17:41.366Z,99562.27
2018-08-10T12:20:10.691Z,99557.19
2018-08-10T12:22:40.588Z,99556.73
2018-08-10T12:25:10.031Z,99557.67
2018-08-10T12:27:38.931Z,99562.42
2018-08-10T12:30:09.469Z,99553.98
2018-08-10T12:32:38.335Z,99544.27
2018-08-10T12:35:07.638Z,99551.20
2018-08-10T12:37:36.460Z,99542.94
2018-08-10T12:40:05.636Z,99543.60
2018-08-10T12:42:34.526Z,99554.00
2018-08-10T12:45:03.495Z,99548.71
2018-08-10T12:47:32.390Z,99545.81
2018-08-10T12:50:01.378Z,99537.14
2018-08-10T12:52:30.248Z,99538.03
2018-08-10T12:54:59.192Z,99534.36
2018-08-10T12:57:28.139Z,99530.39
2018-08-10T12:59:57.021Z,99528.72
2018-08-10T13:02:26.051Z,99523.99
2018-08-10T13:04:54.938Z,99512.87
2018-08-10T13:07:23.787Z,99512.66
2018-08-10T13:09:52.617Z,99512.97
2018-08-10T13:12:21.571Z,99512.33
2018-08-10T13:14:50.523Z,99510.88
2018-08-10T13:17:19.390Z,99511.84
2018-08-10T13:19:48.296Z,99512.33
2018-08-10T13:22:17.221Z,99498.73
2018-08-10T13:24:46.087Z,99494.87
2018-08-10T13:27:14.975Z,99499.44
2018-08-10T13:29:43.845Z,99494.11
2018-08-10T13:32:12.674Z,99489.67
2018-08-10T13:34:41.636Z,99493.06
2018-08-10T13:37:10.661Z,99494.70
2018-08-10T13:39:39.595Z,99484.08
2018-08-10T13:42:08.604Z,99485.16
2018-08-10T13:44:37.505Z,99483.53
2018-08-10T13:47:06.526Z,99481.94
2018-08-10T13:49:35.521Z,99478.66
2018-08-10T13:52:04.747Z,99445.45
2018-08-10T13:54:33.681Z,99466.19
2018-08-10T13:57:02.534Z,99471.16
2018-08-10T13:59:31.380Z,99473.67
2018-08-10T14:02:00.282Z,99467.05
2018-08-10T14:04:29.245Z,99468.47
2018-08-10T14:06:58.083Z,99466.04
2018-08-10T14:09:27.036Z,99469.52
2018-08-10T14:11:55.890Z,99468.67
2018-08-10T14:14:24.749Z,99464.95
2018-08-10T14:16:53.721Z,99473.37
2018-08-10T14:19:22.629Z,99474.19
2018-08-10T14:21:51.522Z,99471.64
2018-08-10T14:24:20.386Z,99464.88
2018-08-10T14:26:49.294Z,99471.97
2018-08-10T14:29:18.183Z,99479.44
2018-08-10T14:31:47.071Z,99471.38
2018-08-10T14:34:16.136Z,99472.27
2018-08-10T14:36:45.360Z,99464.81
2018-08-10T14:39:14.719Z,99461.79
2018-08-10T14:41:43.770Z,99469.36
2018-08-10T14:44:12.820Z,99469.45
2018-08-10T14:46:41.835Z,99465.34
2018-08-10T14:49:10.817Z,99468.17
2018-08-10T14:51:39.762Z,99467.61
2018-08-10T14:54:08.736Z,99462.73
2018-08-10T14:56:37.609Z,99475.10
2018-08-10T14:59:08.200Z,99471.11
2018-08-10T15:01:37.205Z,99477.91
2018-08-10T15:04:06.133Z,99470.36
2018-08-10T15:06:35.093Z,99464.38
2018-08-10T15:09:05.351Z,99461.84
2018-08-10T15:11:34.297Z,99459.99
2018-08-10T15:14:03.188Z,99462.04
2018-08-10T15:16:32.188Z,99457.28
2018-08-10T15:19:01.103Z,99460.52
2018-08-10T15:21:29.970Z,99455.84
2018-08-10T15:23:58.981Z,99457.77
2018-08-10T15:26:27.936Z,99457.37
2018-08-10T15:28:56.991Z,99455.34
2018-08-10T15:31:26.193Z,99455.10
2018-08-10T15:33:55.189Z,99455.36
2018-08-10T15:36:24.055Z,99459.22
2018-08-10T15:38:53.085Z,99457.13
2018-08-10T15:41:22.026Z,99453.94
2018-08-10T15:43:50.984Z,99422.45
2018-08-10T15:46:20.046Z,99457.20
2018-08-10T15:48:49.118Z,99452.37
2018-08-10T15:51:18.067Z,99454.80
2018-08-10T15:53:47.190Z,99462.91
2018-08-10T15:56:16.316Z,99464.69
2018-08-10T15:58:45.054Z,99453.83
2018-08-10T16:01:14.115Z,99460.72
2018-08-10T16:03:43.120Z,99432.75
2018-08-10T16:06:12.139Z,99450.78
2018-08-10T16:08:41.138Z,99454.64
2018-08-10T16:11:10.004Z,99457.38
2018-08-10T16:13:38.973Z,99461.27
2018-08-10T16:16:08.027Z,99460.27
2018-08-10T16:18:36.986Z,99456.33
2018-08-10T16:21:05.976Z,99454.13
2018-08-10T16:23:35.035Z,99459.12
2018-08-10T16:26:04.097Z,99457.48
2018-08-10T16:28:33.058Z,99456.86
2018-08-10T16:31:01.980Z,99464.78
2018-08-10T16:33:30.939Z,99457.38
2018-08-10T16:35:59.936Z,99456.14
2018-08-10T16:38:28.997Z,99456.55
2018-08-10T16:40:57.990Z,99461.83
2018-08-10T16:43:26.996Z,99452.63
2018-08-10T16:45:55.995Z,99450.73
2018-08-10T16:48:25.141Z,99459.92
2018-08-10T16:50:54.031Z,99453.53
2018-08-10T16:53:22.993Z,99460.52
2018-08-10T16:55:52.006Z,99460.52
2018-08-10T16:58:21.026Z,99459.27
2018-08-10T17:00:50.103Z,99463.10
2018-08-10T17:03:19.089Z,99469.56
2018-08-10T17:05:48.058Z,99466.05
2018-08-10T17:08:16.978Z,99464.58
2018-08-10T17:10:45.892Z,99467.34
2018-08-10T17:13:14.751Z,99469.30
2018-08-10T17:15:43.703Z,99474.91
2018-08-10T17:18:12.658Z,99464.96
2018-08-10T17:20:41.682Z,99468.13
2018-08-10T17:23:10.615Z,99469.05
2018-08-10T17:25:39.494Z,99471.62
2018-08-10T17:28:08.388Z,99475.55
2018-08-10T17:30:37.475Z,99472.66
2018-08-10T17:33:06.753Z,99474.16
2018-08-10T17:35:35.599Z,99482.27
2018-08-10T17:38:04.598Z,99488.09
2018-08-10T17:40:33.494Z,99482.59
2018-08-10T17:43:02.365Z,99489.25
2018-08-10T17:45:31.360Z,99490.73
2018-08-10T17:48:00.328Z,99489.81
2018-08-10T17:50:29.336Z,99500.64
2018-08-10T17:52:59.019Z,99503.25
2018-08-10T17:55:27.848Z,99502.20
2018-08-10T17:57:56.695Z,99503.30
2018-08-10T18:00:27.337Z,99508.00
2018-08-10T18:02:56.258Z,99502.20
2018-08-10T18:05:25.115Z,99511.06
2018-08-10T18:07:54.073Z,99506.70
2018-08-10T18:10:23.015Z,99512.15
2018-08-10T18:12:51.929Z,99513.02
2018-08-10T18:15:21.427Z,99512.02
2018-08-10T18:17:50.469Z,99510.34
2018-08-10T18:20:20.706Z,99523.78
2018-08-10T18:22:50.867Z,99523.80
2018-08-10T18:25:20.972Z,99526.11
2018-08-10T18:27:49.911Z,99529.67
2018-08-10T18:30:20.853Z,99527.78
2018-08-10T18:32:50.040Z,99529.69
2018-08-10T18:35:19.136Z,99538.20
2018-08-10T18:37:48.848Z,99549.41
2018-08-10T18:40:18.163Z,99557.91
2018-08-10T18:42:48.257Z,99561.89
2018-08-10T18:45:19.465Z,99565.08
2018-08-10T18:47:48.576Z,99569.17
2018-08-10T18:50:18.699Z,99571.50
2018-08-10T18:52:47.757Z,99569.23
2018-08-10T18:55:18.589Z,99572.28
2018-08-10T18:57:47.643Z,99576.38
2018-08-10T19:00:18.619Z,99578.22
2018-08-10T19:02:48.837Z,99575.14
2018-08-10T19:05:18.444Z,99582.86
2018-08-10T19:07:48.206Z,99582.76
2018-08-10T19:10:22.070Z,99580.30
2018-08-10T19:12:51.208Z,99580.08
2018-08-10T19:15:20.252Z,99581.70
2018-08-10T19:17:49.228Z,99577.67
2018-08-10T19:20:18.231Z,99584.21
2018-08-10T19:22:47.553Z,99586.11
2018-08-10T19:25:17.131Z,99592.00
2018-08-10T19:27:46.088Z,99595.90
2018-08-10T19:30:22.327Z,99594.58
2018-08-10T19:32:51.253Z,99598.60
2018-08-10T19:35:20.337Z,99600.77
2018-08-10T19:37:49.356Z,99602.43
2018-08-10T19:40:19.364Z,99602.89
2018-08-10T19:42:48.348Z,99600.64
2018-08-10T19:45:17.940Z,99600.73
2018-08-10T19:47:46.946Z,99599.77
2018-08-10T19:50:17.071Z,99589.83
2018-08-10T19:52:46.068Z,99603.39
2018-08-10T19:55:15.896Z,99600.33
2018-08-10T19:57:44.785Z,99606.55
2018-08-10T20:00:15.514Z,99602.92
2018-08-10T20:02:46.866Z,99600.50
2018-08-10T20:05:15.941Z,99596.55
2018-08-10T20:07:44.865Z,99596.18
2018-08-10T20:10:14.614Z,99601.17
2018-08-10T20:12:43.532Z,99605.02
2018-08-10T20:15:14.024Z,99604.54
2018-08-10T20:17:43.562Z,99605.13
2018-08-10T20:20:14.191Z,99606.98
2018-08-10T20:22:44.129Z,99601.67
2018-08-10T20:25:14.028Z,99605.44
2018-08-10T20:27:42.964Z,99598.38
2018-08-10T20:30:13.690Z,99601.81
2018-08-10T20:32:42.935Z,99600.90
2018-08-10T20:35:13.493Z,99605.44
2018-08-10T20:37:42.927Z,99613.58
2018-08-10T20:40:14.941Z,99613.66
2018-08-10T20:42:44.045Z,99611.92
2018-08-10T20:45:13.303Z,99613.59
2018-08-10T20:47:42.312Z,99615.22
2018-08-10T20:50:14.307Z,99615.47
2018-08-10T20:52:43.862Z,99611.98
2018-08-10T20:55:12.933Z,99617.56
2018-08-10T20:57:41.926Z,99617.20
2018-08-10T21:00:12.104Z,99620.06
2018-08-10T21:02:42.383Z,99614.72
2018-08-10T21:05:11.558Z,99613.59
2018-08-10T21:07:40.510Z,99618.05
2018-08-10T21:10:12.904Z,99624.16
2018-08-10T21:12:42.582Z,99623.70
2018-08-10T21:15:12.699Z,99625.80
2018-08-10T21:17:42.557Z,99631.22
2018-08-10T21:20:13.199Z,99629.20
2018-08-10T21:22:42.162Z,99623.12
2018-08-10T21:25:11.940Z,99625.02
2018-08-10T21:27:41.532Z,99631.33
2018-08-10T21:30:16.075Z,99634.17
2018-08-10T21:32:45.046Z,99634.31
2018-08-10T21:35:13.934Z,99631.36
2018-08-10T21:37:42.886Z,99628.78
2018-08-10T21:40:12.062Z,99638.45
2018-08-10T21:42:41.946Z,99640.52
2018-08-10T21:45:10.845Z,99638.12
2018-08-10T21:47:39.814Z,99634.83
2018-08-10T21:50:12.559Z,99635.79
2018-08-10T21:52:42.133Z,99631.98
2018-08-10T21:55:11.543Z,99629.41
2018-08-10T21:57:40.825Z,99627.45
2018-08-10T22:00:18.410Z,99632.04
2018-08-10T22:02:47.310Z,99631.69
2018-08-10T22:05:16.204Z,99630.48
2018-08-10T22:07:45.109Z,99623.42
2018-08-10T22:10:14.093Z,99619.08
2018-08-10T22:12:47.958Z,99622.84
2018-08-10T22:15:22.619Z,99630.25
2018-08-10T22:17:56.806Z,99628.67
2018-08-10T22:20:25.880Z,99628.37
2018-08-10T22:22:54.754Z,99629.37
2018-08-10T22:25:23.712Z,99628.71
2018-08-10T22:27:52.608Z,99631.80
2018-08-10T22:30:21.524Z,99628.75
2018-08-10T22:32:50.386Z,99624.70
2018-08-10T22:35:19.323Z,99627.81
2018-08-10T22:37:48.280Z,99623.42
2018-08-10T22:40:17.149Z,99620.41
2018-08-10T22:42:46.103Z,99628.53
2018-08-10T22:45:14.978Z,99637.54
2018-08-10T22:47:43.835Z,99629.98
2018-08-10T22:50:12.843Z,99629.55
2018-08-10T22:52:41.680Z,99626.88
2018-08-10T22:55:10.691Z,99634.33
2018-08-10T22:57:39.600Z,99634.98
2018-08-10T23:00:08.431Z,99631.27
2018-08-10T23:02:37.523Z,99625.83
2018-08-10T23:05:06.711Z,99630.27
2018-08-10T23:07:35.883Z,99630.02
2018-08-10T23:10:06.087Z,99625.75
2018-08-10T23:12:35.089Z,99615.05
2018-08-10T23:15:04.108Z,99612.44
2018-08-10T23:17:32.964Z,99619.03
2018-08-10T23:20:01.999Z,99610.35
2018-08-10T23:22:30.835Z,99619.48
2018-08-10T23:24:59.731Z,99606.06
2018-08-10T23:27:28.608Z,99610.25
2018-08-10T23:29:57.415Z,99609.23
2018-08-10T23:32:26.259Z,99605.78
2018-08-10T23:34:55.139Z,99612.95
2018-08-10T23:37:24.001Z,99613.78
2018-08-10T23:39:52.808Z,99612.03
2018-08-10T23:42:21.643Z,99609.98
2018-08-10T23:44:50.537Z,99613.01
2018-08-10T23:47:19.371Z,99614.33
2018-08-10T23:49:48.295Z,99616.11
2018-08-10T23:52:17.178Z,99601.44
2018-08-10T23:54:46.096Z,99613.92
2018-08-10T23:57:14.979Z,99612.92
2018-08-10T23:59:43.916Z,99611.77
